createdAt,value
2019-02-28T00:02:26.915Z,5.35
2019-02-28T00:04:55.765Z,7.30
2019-02-28T00:07:24.519Z,8.17
2019-02-28T00:09:53.391Z,7.83
2019-02-28T00:12:22.255Z,8.03
2019-02-28T00:14:51.064Z,8.37
2019-02-28T00:17:19.870Z,8.00
2019-02-28T00:19:48.645Z,8.23
2019-02-28T00:22:17.454Z,8.47
2019-02-28T00:24:46.296Z,7.50
2019-02-28T00:27:15.094Z,8.07
2019-02-28T00:29:43.893Z,7.30
2019-02-28T00:32:12.690Z,8.00
2019-02-28T00:34:41.473Z,9.40
2019-02-28T00:37:10.269Z,7.72
2019-02-28T00:39:42.047Z,9.83
2019-02-28T00:42:10.864Z,8.03
2019-02-28T00:44:39.646Z,8.20
2019-02-28T00:47:08.427Z,7.27
2019-02-28T00:49:37.222Z,8.10
2019-02-28T00:52:06.086Z,6.80
2019-02-28T00:54:34.876Z,6.83
2019-02-28T00:57:03.661Z,7.47
2019-02-28T00:59:32.538Z,7.90
2019-02-28T01:02:01.540Z,7.80
2019-02-28T01:04:30.888Z,8.30
2019-02-28T01:06:59.746Z,7.70
2019-02-28T01:09:30.160Z,7.73
2019-02-28T01:11:59.051Z,8.53
2019-02-28T01:14:27.825Z,7.40
2019-02-28T01:16:56.627Z,7.70
2019-02-28T01:19:25.519Z,7.00
2019-02-28T01:21:55.432Z,8.53
2019-02-28T01:24:25.012Z,8.10
2019-02-28T01:26:53.850Z,8.80
2019-02-28T01:29:22.629Z,7.43
2019-02-28T01:31:51.493Z,8.97
2019-02-28T01:34:20.275Z,7.85
2019-02-28T01:36:49.594Z,6.73
2019-02-28T01:39:18.329Z,7.60
2019-02-28T01:41:47.163Z,7.60
2019-02-28T01:44:16.053Z,7.90
2019-02-28T01:46:44.856Z,8.28
2019-02-28T01:49:13.634Z,7.80
2019-02-28T01:51:42.427Z,8.60
2019-02-28T01:54:11.206Z,7.47
2019-02-28T01:56:40.108Z,6.80
2019-02-28T01:59:09.269Z,7.07
2019-02-28T02:01:38.196Z,7.80
2019-02-28T02:04:06.989Z,7.17
2019-02-28T02:06:36.006Z,6.93
2019-02-28T02:09:08.141Z,6.75
2019-02-28T02:11:36.784Z,6.53
2019-02-28T02:14:07.453Z,8.17
2019-02-28T02:16:36.225Z,8.77
2019-02-28T02:19:05.145Z,6.63
2019-02-28T02:21:34.873Z,7.90
2019-02-28T02:24:04.693Z,5.30
2019-02-28T02:26:33.547Z,7.62
2019-02-28T02:29:02.346Z,8.80
2019-02-28T02:31:31.194Z,7.30
2019-02-28T02:34:00.002Z,7.80
2019-02-28T02:36:28.787Z,8.23
2019-02-28T02:38:57.567Z,6.43
2019-02-28T02:41:26.346Z,7.20
2019-02-28T02:43:56.042Z,8.00
2019-02-28T02:46:24.836Z,8.07
2019-02-28T02:48:53.614Z,9.07
2019-02-28T02:51:22.389Z,6.90
2019-02-28T02:53:51.168Z,7.20
2019-02-28T02:56:20.169Z,6.70
2019-02-28T02:58:48.958Z,6.50
2019-02-28T03:01:17.761Z,5.47
2019-02-28T03:03:46.636Z,6.90
2019-02-28T03:06:15.447Z,6.50
2019-02-28T03:08:44.420Z,5.63
2019-02-28T03:11:13.355Z,8.77
2019-02-28T03:13:43.972Z,7.85
2019-02-28T03:16:12.911Z,7.30
2019-02-28T03:18:41.733Z,8.20
2019-02-28T03:21:15.067Z,6.67
2019-02-28T03:23:41.198Z,6.97
2019-02-28T03:26:09.969Z,9.13
2019-02-28T03:28:38.756Z,7.90
2019-02-28T03:31:14.219Z,8.30
2019-02-28T03:33:38.181Z,6.87
2019-02-28T03:36:07.347Z,6.10
2019-02-28T03:38:36.128Z,6.80
2019-02-28T03:41:05.063Z,5.80
2019-02-28T03:43:33.922Z,6.50
2019-02-28T03:46:06.481Z,8.03
2019-02-28T03:48:35.967Z,6.47
2019-02-28T03:51:03.718Z,6.00
2019-02-28T03:53:32.581Z,6.27
2019-02-28T03:56:01.420Z,7.00
2019-02-28T03:58:30.371Z,6.27
2019-02-28T04:00:59.228Z,6.80
2019-02-28T04:03:33.333Z,9.30
2019-02-28T04:06:03.370Z,6.83
2019-02-28T04:08:30.503Z,8.67
2019-02-28T04:10:59.525Z,5.93
2019-02-28T04:13:28.318Z,6.80
2019-02-28T04:16:08.325Z,5.37
2019-02-28T04:18:27.669Z,4.92
2019-02-28T04:20:56.668Z,7.40
2019-02-28T04:23:25.489Z,7.23
2019-02-28T04:25:56.998Z,6.67
2019-02-28T04:28:24.771Z,7.60
2019-02-28T04:30:53.671Z,7.67
2019-02-28T04:33:22.440Z,6.13
2019-02-28T04:35:51.349Z,9.37
2019-02-28T04:38:21.399Z,7.37
2019-02-28T04:40:50.192Z,6.40
2019-02-28T04:43:19.073Z,6.40
2019-02-28T04:45:47.879Z,7.47
2019-02-28T04:48:16.654Z,6.40
2019-02-28T04:50:45.441Z,7.27
2019-02-28T04:53:14.233Z,7.10
2019-02-28T04:55:43.123Z,7.47
2019-02-28T04:58:11.885Z,8.20
2019-02-28T05:00:40.743Z,5.90
2019-02-28T05:03:09.522Z,6.42
2019-02-28T05:05:38.299Z,7.87
2019-02-28T05:08:07.087Z,6.90
2019-02-28T05:10:35.854Z,7.90
2019-02-28T05:13:04.705Z,6.60
2019-02-28T05:15:37.394Z,8.37
2019-02-28T05:18:04.089Z,7.70
2019-02-28T05:20:32.955Z,7.87
2019-02-28T05:23:02.676Z,8.33
2019-02-28T05:25:31.688Z,8.43
2019-02-28T05:28:00.679Z,7.60
2019-02-28T05:30:29.460Z,8.40
2019-02-28T05:32:58.327Z,9.00
2019-02-28T05:35:27.132Z,7.70
2019-02-28T05:37:55.922Z,8.27
2019-02-28T05:40:24.698Z,5.20
2019-02-28T05:42:54.673Z,7.50
2019-02-28T05:45:24.089Z,8.77
2019-02-28T05:47:52.848Z,8.40
2019-02-28T05:50:21.614Z,9.38
2019-02-28T05:52:50.407Z,7.60
2019-02-28T05:55:24.431Z,10.67
2019-02-28T05:57:49.818Z,9.60
2019-02-28T06:00:19.999Z,11.00
2019-02-28T06:02:48.964Z,9.83
2019-02-28T06:05:17.755Z,7.95
2019-02-28T06:07:46.570Z,8.98
2019-02-28T06:10:15.542Z,17.20
2019-02-28T06:12:45.027Z,21.50
2019-02-28T06:15:15.426Z,18.57
2019-02-28T06:17:44.390Z,12.13
2019-02-28T06:20:16.203Z,10.03
2019-02-28T06:22:45.156Z,9.53
2019-02-28T06:25:22.655Z,9.08
2019-02-28T06:27:49.056Z,8.20
2019-02-28T06:30:16.026Z,8.07
2019-02-28T06:32:44.845Z,8.63
2019-02-28T06:35:17.784Z,9.53
2019-02-28T06:37:45.103Z,8.08
2019-02-28T06:40:14.253Z,9.93
2019-02-28T06:42:43.448Z,9.48
2019-02-28T06:45:14.452Z,7.37
2019-02-28T06:47:47.972Z,9.18
2019-02-28T06:50:14.169Z,10.13
2019-02-28T06:52:43.089Z,11.33
2019-02-28T06:55:15.559Z,9.00
2019-02-28T06:57:44.343Z,11.37
2019-02-28T07:00:14.152Z,10.63
2019-02-28T07:02:43.062Z,10.88
2019-02-28T07:05:12.101Z,11.63
2019-02-28T07:07:40.882Z,11.50
2019-02-28T07:10:12.697Z,8.63
2019-02-28T07:12:41.144Z,11.03
2019-02-28T07:15:10.180Z,8.90
2019-02-28T07:17:39.122Z,8.70
2019-02-28T07:20:10.152Z,10.07
2019-02-28T07:22:40.095Z,6.93
2019-02-28T07:25:09.444Z,8.17
2019-02-28T07:27:39.707Z,8.50
2019-02-28T07:30:17.269Z,8.20
2019-02-28T07:32:42.183Z,7.50
2019-02-28T07:35:11.128Z,8.00
2019-02-28T07:37:40.236Z,6.33
2019-02-28T07:40:15.561Z,6.87
2019-02-28T07:42:40.870Z,6.33
2019-02-28T07:45:12.137Z,7.03
2019-02-28T07:47:41.136Z,8.87
2019-02-28T07:50:10.855Z,7.37
2019-02-28T07:52:40.192Z,7.00
2019-02-28T07:55:10.116Z,7.87
2019-02-28T07:57:39.079Z,9.37
2019-02-28T08:00:16.753Z,7.33
2019-02-28T08:02:42.261Z,8.70
2019-02-28T08:05:12.230Z,8.60
2019-02-28T08:07:41.104Z,7.40
2019-02-28T08:10:12.735Z,7.90
2019-02-28T08:12:42.736Z,6.87
2019-02-28T08:15:14.967Z,6.47
2019-02-28T08:17:44.702Z,6.17
2019-02-28T08:20:14.261Z,7.77
2019-02-28T08:22:43.019Z,6.50
2019-02-28T08:25:12.562Z,6.10
2019-02-28T08:27:41.349Z,6.50
2019-02-28T08:30:16.349Z,7.77
2019-02-28T08:32:46.877Z,6.73
2019-02-28T08:35:15.098Z,6.67
2019-02-28T08:37:44.102Z,7.90
2019-02-28T08:40:17.252Z,7.63
2019-02-28T08:42:46.224Z,6.10
2019-02-28T08:45:15.391Z,6.03
2019-02-28T08:47:44.337Z,6.50
2019-02-28T08:50:19.129Z,6.10
2019-02-28T08:52:48.380Z,7.10
2019-02-28T08:55:17.256Z,7.22
2019-02-28T08:57:54.428Z,7.53
2019-02-28T09:00:18.065Z,7.70
2019-02-28T09:02:52.267Z,9.10
2019-02-28T09:05:17.617Z,7.83
2019-02-28T09:07:50.929Z,7.08
2019-02-28T09:10:18.897Z,6.90
2019-02-28T09:12:48.103Z,7.80
2019-02-28T09:15:17.487Z,9.00
2019-02-28T09:17:46.415Z,8.30
2019-02-28T09:20:15.488Z,10.33
2019-02-28T09:22:44.713Z,10.67
2019-02-28T09:25:14.835Z,9.40
2019-02-28T09:27:43.893Z,10.77
2019-02-28T09:30:19.062Z,10.90
2019-02-28T09:32:48.167Z,10.33
2019-02-28T09:35:17.792Z,10.33
2019-02-28T09:37:46.641Z,10.60
2019-02-28T09:40:15.801Z,10.83
2019-02-28T09:42:47.885Z,12.53
2019-02-28T09:45:17.271Z,11.93
2019-02-28T09:47:46.159Z,13.47
2019-02-28T09:50:19.400Z,11.30
2019-02-28T09:52:47.720Z,12.28
2019-02-28T09:55:16.582Z,13.40
2019-02-28T09:57:45.388Z,11.93
2019-02-28T10:00:16.523Z,11.77
2019-02-28T10:02:45.727Z,11.67
2019-02-28T10:05:14.897Z,12.50
2019-02-28T10:07:43.935Z,11.67
2019-02-28T10:10:17.450Z,13.80
2019-02-28T10:12:45.861Z,12.23
2019-02-28T10:15:16.547Z,10.80
2019-02-28T10:17:45.645Z,14.30
2019-02-28T10:20:16.902Z,10.77
2019-02-28T10:22:47.328Z,12.27
2019-02-28T10:25:17.033Z,11.57
2019-02-28T10:27:46.046Z,12.53
2019-02-28T10:30:17.239Z,10.03
2019-02-28T10:32:46.272Z,10.87
2019-02-28T10:35:15.451Z,9.57
2019-02-28T10:37:44.443Z,16.80
2019-02-28T10:40:17.767Z,10.20
2019-02-28T10:42:46.815Z,11.30
2019-02-28T10:45:15.985Z,10.20
2019-02-28T10:47:44.883Z,8.80
2019-02-28T10:50:18.682Z,9.23
2019-02-28T10:52:47.989Z,10.33
2019-02-28T10:55:19.370Z,11.53
2019-02-28T10:57:48.988Z,9.60
2019-02-28T11:00:32.879Z,10.27
2019-02-28T11:03:01.323Z,11.33
2019-02-28T11:05:31.801Z,10.40
2019-02-28T11:08:01.562Z,10.47
2019-02-28T11:10:35.523Z,10.77
2019-02-28T11:13:03.613Z,13.77
2019-02-28T11:15:32.534Z,10.80
2019-02-28T11:18:01.487Z,10.80
2019-02-28T11:20:30.438Z,10.77
2019-02-28T11:22:59.583Z,11.30
2019-02-28T11:25:34.591Z,12.37
2019-02-28T11:28:00.191Z,10.83
2019-02-28T11:30:29.231Z,8.87
2019-02-28T11:33:03.064Z,8.35
2019-02-28T11:35:29.425Z,10.43
2019-02-28T11:37:58.357Z,9.60
2019-02-28T11:40:29.201Z,10.60
2019-02-28T11:43:02.611Z,9.33
2019-02-28T11:45:30.311Z,9.93
2019-02-28T11:48:00.486Z,10.43
2019-02-28T11:50:29.540Z,10.43
2019-02-28T11:53:03.258Z,10.23
2019-02-28T11:55:28.989Z,9.83
2019-02-28T11:57:58.630Z,9.07
2019-02-28T12:00:29.020Z,8.90
2019-02-28T12:03:00.831Z,9.47
2019-02-28T12:05:29.095Z,8.40
2019-02-28T12:07:58.026Z,10.37
2019-02-28T12:10:27.893Z,8.83
2019-02-28T12:12:56.941Z,9.88
2019-02-28T12:15:26.783Z,9.80
2019-02-28T12:17:55.663Z,11.43
2019-02-28T12:20:26.561Z,10.32
2019-02-28T12:22:55.898Z,10.53
2019-02-28T12:25:25.722Z,9.10
2019-02-28T12:27:55.487Z,8.80
2019-02-28T12:30:26.235Z,9.50
2019-02-28T12:32:55.702Z,9.38
2019-02-28T12:35:24.577Z,8.75
2019-02-28T12:37:54.213Z,8.63
2019-02-28T12:40:25.781Z,9.25
2019-02-28T12:42:54.660Z,9.10
2019-02-28T12:45:26.294Z,7.87
2019-02-28T12:47:56.191Z,10.68
2019-02-28T12:50:29.461Z,8.33
2019-02-28T12:52:58.647Z,9.67
2019-02-28T12:55:27.534Z,10.97
2019-02-28T12:57:57.843Z,10.50
2019-02-28T13:00:29.826Z,9.57
2019-02-28T13:02:58.869Z,10.00
2019-02-28T13:05:27.748Z,8.70
2019-02-28T13:07:56.935Z,8.63
2019-02-28T13:10:28.010Z,9.43
2019-02-28T13:13:05.617Z,11.43
2019-02-28T13:15:27.925Z,10.00
2019-02-28T13:17:57.207Z,8.85
2019-02-28T13:20:32.184Z,9.40
2019-02-28T13:22:59.535Z,11.68
2019-02-28T13:25:28.134Z,11.53
2019-02-28T13:27:57.847Z,10.63
2019-02-28T13:30:27.723Z,9.63
2019-02-28T13:32:57.686Z,10.05
2019-02-28T13:35:28.382Z,10.70
2019-02-28T13:37:57.994Z,10.65
2019-02-28T13:40:28.015Z,10.85
2019-02-28T13:42:56.858Z,9.10
2019-02-28T13:45:26.468Z,10.00
2019-02-28T13:47:55.448Z,10.80
2019-02-28T13:50:26.818Z,8.20
2019-02-28T13:52:56.461Z,9.97
2019-02-28T13:55:25.885Z,10.30
2019-02-28T13:57:54.844Z,9.20
2019-02-28T14:00:25.987Z,10.50
2019-02-28T14:02:59.730Z,10.10
2019-02-28T14:05:29.901Z,10.10
2019-02-28T14:07:59.104Z,11.70
2019-02-28T14:10:29.655Z,10.64
2019-02-28T14:12:59.958Z,9.80
2019-02-28T14:15:31.832Z,10.20
2019-02-28T14:18:00.663Z,10.40
2019-02-28T14:20:29.462Z,9.60
2019-02-28T14:22:58.532Z,8.75
2019-02-28T14:25:27.397Z,9.28
2019-02-28T14:27:56.974Z,7.83
2019-02-28T14:30:27.480Z,10.40
2019-02-28T14:32:56.543Z,7.10
2019-02-28T14:35:26.319Z,10.10
2019-02-28T14:37:56.597Z,7.67
2019-02-28T14:40:25.723Z,9.30
2019-02-28T14:42:54.534Z,8.40
2019-02-28T14:45:23.406Z,8.30
2019-02-28T14:47:56.798Z,8.13
2019-02-28T14:50:23.413Z,9.63
2019-02-28T14:52:53.472Z,8.40
2019-02-28T14:55:22.508Z,7.90
2019-02-28T14:57:51.735Z,8.53
2019-02-28T15:00:24.624Z,7.87
2019-02-28T15:02:53.431Z,9.63
2019-02-28T15:05:22.373Z,9.50
2019-02-28T15:07:51.286Z,8.97
2019-02-28T15:10:20.464Z,9.77
2019-02-28T15:12:49.576Z,9.67
2019-02-28T15:15:19.112Z,11.67
2019-02-28T15:17:48.354Z,10.57
2019-02-28T15:20:17.643Z,10.63
2019-02-28T15:22:46.656Z,10.72
2019-02-28T15:25:18.654Z,11.20
2019-02-28T15:27:47.129Z,12.30
2019-02-28T15:30:18.520Z,11.20
2019-02-28T15:32:47.309Z,12.40
2019-02-28T15:35:17.409Z,10.60
2019-02-28T15:37:46.278Z,11.40
2019-02-28T15:40:17.471Z,11.30
2019-02-28T15:42:46.466Z,10.43
2019-02-28T15:45:15.537Z,12.90
2019-02-28T15:47:44.386Z,12.87
2019-02-28T15:50:16.300Z,10.93
2019-02-28T15:52:45.760Z,11.35
2019-02-28T15:55:15.255Z,10.83
2019-02-28T15:57:44.294Z,11.80
2019-02-28T16:00:22.146Z,10.10
2019-02-28T16:02:50.324Z,10.07
2019-02-28T16:05:19.600Z,11.85
2019-02-28T16:07:50.473Z,10.18
2019-02-28T16:10:21.092Z,10.13
2019-02-28T16:12:51.152Z,10.47
2019-02-28T16:15:20.008Z,9.80
2019-02-28T16:17:48.891Z,9.68
2019-02-28T16:20:17.963Z,12.03
2019-02-28T16:22:52.121Z,9.77
2019-02-28T16:25:20.337Z,8.47
2019-02-28T16:27:49.193Z,9.33
2019-02-28T16:30:18.445Z,10.87
2019-02-28T16:32:49.127Z,7.62
2019-02-28T16:35:17.974Z,6.50
2019-02-28T16:37:46.823Z,6.20
2019-02-28T16:40:16.989Z,7.20
2019-02-28T16:42:46.442Z,7.50
2019-02-28T16:45:27.887Z,7.78
2019-02-28T16:47:59.570Z,8.00
2019-02-28T16:50:27.598Z,6.90
2019-02-28T16:52:56.470Z,6.43
2019-02-28T16:55:27.426Z,7.80
2019-02-28T16:57:55.921Z,8.50
2019-02-28T17:00:24.803Z,8.93
2019-02-28T17:02:53.680Z,8.43
2019-02-28T17:05:26.698Z,9.40
2019-02-28T17:07:53.271Z,9.97
2019-02-28T17:10:26.043Z,8.50
2019-02-28T17:13:12.930Z,7.87
2019-02-28T17:16:04.322Z,9.20
2019-02-28T17:18:33.939Z,8.63
2019-02-28T17:21:02.808Z,10.53
2019-02-28T17:23:33.768Z,12.77
2019-02-28T17:26:02.277Z,18.60
2019-02-28T17:28:54.004Z,9.87
2019-02-28T17:31:57.120Z,9.63
2019-02-28T17:34:25.985Z,11.27
2019-02-28T17:36:54.844Z,12.05
2019-02-28T17:39:23.795Z,7.97
2019-02-28T17:41:52.727Z,12.00
2019-02-28T17:44:57.888Z,11.50
2019-02-28T17:48:12.705Z,8.95
2019-02-28T17:50:51.782Z,9.87
2019-02-28T17:53:45.639Z,9.10
2019-02-28T17:56:37.552Z,8.27
2019-02-28T17:59:44.188Z,8.87
2019-02-28T18:02:50.686Z,8.47
2019-02-28T18:05:33.813Z,9.27
2019-02-28T18:08:32.262Z,8.67
2019-02-28T18:11:34.110Z,9.60
2019-02-28T18:14:31.227Z,6.57
2019-02-28T18:17:35.195Z,6.03
2019-02-28T18:20:45.535Z,7.60
2019-02-28T18:23:27.894Z,4.63
2019-02-28T18:26:38.655Z,7.53
2019-02-28T18:29:34.205Z,5.37
2019-02-28T18:32:03.000Z,5.67
2019-02-28T18:34:34.054Z,6.47
2019-02-28T18:37:02.914Z,4.83
2019-02-28T18:39:31.681Z,6.17
2019-02-28T18:42:00.652Z,6.77
2019-02-28T18:44:29.516Z,5.47
2019-02-28T18:46:58.304Z,4.83
2019-02-28T18:49:29.413Z,5.20
2019-02-28T18:51:59.564Z,4.53
2019-02-28T18:54:28.091Z,5.03
2019-02-28T18:56:56.873Z,4.10
2019-02-28T18:59:25.649Z,3.87
2019-02-28T19:01:54.461Z,3.83
2019-02-28T19:04:23.315Z,4.40
2019-02-28T19:06:52.168Z,2.93
2019-02-28T19:09:22.784Z,4.17
2019-02-28T19:11:51.733Z,3.87
2019-02-28T19:14:20.571Z,3.23
2019-02-28T19:16:49.353Z,2.90
2019-02-28T19:19:18.131Z,2.57
2019-02-28T19:21:46.933Z,4.13
2019-02-28T19:24:15.713Z,2.27
2019-02-28T19:26:44.517Z,3.35
2019-02-28T19:29:13.935Z,2.70
2019-02-28T19:31:42.730Z,3.30
2019-02-28T19:34:11.503Z,2.77
2019-02-28T19:36:40.280Z,2.47
2019-02-28T19:39:09.070Z,2.47
2019-02-28T19:41:37.923Z,2.80
2019-02-28T19:44:06.685Z,3.17
2019-02-28T19:46:35.529Z,4.05
2019-02-28T19:49:04.422Z,1.70
2019-02-28T19:51:33.207Z,2.07
2019-02-28T19:54:02.068Z,3.00
2019-02-28T19:56:30.850Z,2.13
2019-02-28T19:58:59.640Z,2.30
2019-02-28T20:01:28.412Z,1.87
2019-02-28T20:03:57.211Z,1.90
2019-02-28T20:06:25.977Z,2.90
2019-02-28T20:08:54.754Z,2.30
2019-02-28T20:11:23.714Z,1.83
2019-02-28T20:13:52.514Z,2.03
2019-02-28T20:16:21.361Z,2.30
2019-02-28T20:18:50.472Z,3.20
2019-02-28T20:21:19.416Z,2.57
2019-02-28T20:23:48.355Z,2.03
2019-02-28T20:26:17.192Z,2.40
2019-02-28T20:28:46.943Z,2.67
2019-02-28T20:31:17.040Z,1.75
2019-02-28T20:33:46.956Z,1.40
2019-02-28T20:36:15.801Z,2.20
2019-02-28T20:38:44.615Z,1.93
2019-02-28T20:41:13.395Z,2.40
2019-02-28T20:43:42.193Z,2.07
2019-02-28T20:46:11.043Z,2.27
2019-02-28T20:48:39.921Z,2.23
2019-02-28T20:51:08.752Z,2.10
2019-02-28T20:53:37.535Z,2.53
2019-02-28T20:56:06.414Z,1.83
2019-02-28T20:58:35.202Z,2.00
2019-02-28T21:01:04.220Z,1.50
2019-02-28T21:03:33.056Z,2.00
2019-02-28T21:06:01.900Z,2.37
2019-02-28T21:08:30.764Z,1.67
2019-02-28T21:10:59.550Z,2.75
2019-02-28T21:13:28.341Z,2.03
2019-02-28T21:15:57.145Z,1.80
2019-02-28T21:18:25.997Z,1.73
2019-02-28T21:20:54.776Z,1.82
2019-02-28T21:23:23.628Z,2.57
2019-02-28T21:25:52.396Z,1.57
2019-02-28T21:28:21.291Z,2.40
2019-02-28T21:30:50.149Z,2.00
2019-02-28T21:33:18.933Z,1.50
2019-02-28T21:35:48.514Z,2.00
2019-02-28T21:38:17.358Z,1.80
2019-02-28T21:40:46.312Z,1.60
2019-02-28T21:43:15.182Z,2.10
2019-02-28T21:45:44.120Z,1.60
2019-02-28T21:48:12.976Z,1.53
2019-02-28T21:50:41.757Z,1.40
2019-02-28T21:53:10.568Z,1.40
2019-02-28T21:55:39.392Z,1.33
2019-02-28T21:58:08.182Z,1.53
2019-02-28T22:02:40.062Z,1.95
2019-02-28T22:05:10.600Z,1.77
2019-02-28T22:07:39.556Z,1.83
2019-02-28T22:10:09.537Z,1.60
2019-02-28T22:12:38.307Z,2.23
2019-02-28T22:15:10.534Z,1.70
2019-02-28T22:17:40.482Z,1.60
2019-02-28T22:20:11.084Z,1.67
2019-02-28T22:22:40.168Z,1.50
2019-02-28T22:25:10.231Z,2.80
2019-02-28T22:27:39.189Z,2.13
2019-02-28T22:30:29.099Z,1.60
2019-02-28T22:32:59.705Z,1.60
2019-02-28T22:35:34.596Z,1.60
2019-02-28T22:38:03.385Z,2.43
2019-02-28T22:40:32.232Z,1.70
2019-02-28T22:43:01.019Z,1.80
2019-02-28T22:45:29.807Z,1.93
2019-02-28T22:47:58.572Z,1.90
2019-02-28T22:50:27.347Z,1.47
2019-02-28T22:52:56.169Z,1.40
2019-02-28T22:55:25.052Z,2.07
2019-02-28T22:57:53.820Z,1.30
2019-02-28T23:01:07.128Z,1.80
2019-02-28T23:03:36.801Z,1.40
2019-02-28T23:06:06.237Z,1.40
2019-02-28T23:08:35.146Z,1.60
2019-02-28T23:11:04.303Z,1.70
2019-02-28T23:13:33.118Z,2.03
2019-02-28T23:16:01.961Z,2.22
2019-02-28T23:18:30.899Z,1.60
2019-02-28T23:20:59.672Z,1.87
2019-02-28T23:23:28.766Z,1.53
2019-02-28T23:26:08.827Z,2.20
2019-02-28T23:28:39.955Z,2.03
2019-02-28T23:32:20.796Z,2.13
2019-02-28T23:34:52.114Z,2.27
2019-02-28T23:37:21.637Z,1.67
2019-02-28T23:39:50.433Z,1.53
2019-02-28T23:42:19.261Z,2.00
2019-02-28T23:44:48.041Z,2.10
2019-02-28T23:47:16.811Z,1.80
2019-02-28T23:49:45.613Z,1.60
2019-02-28T23:52:14.438Z,1.73
2019-02-28T23:54:43.205Z,1.97
2019-02-28T23:57:12.011Z,1.77
2019-02-28T23:59:40.777Z,1.43
